createdAt,value
2023-04-24T00:00:15.988Z,74.50
2023-04-24T00:05:19.268Z,74.70
2023-04-24T00:10:22.773Z,75.00
2023-04-24T00:15:25.773Z,75.00
2023-04-24T00:20:33.692Z,75.20
2023-04-24T00:25:36.504Z,75.60
2023-04-24T00:30:39.522Z,75.80
2023-04-24T00:35:42.583Z,76.10
2023-04-24T00:40:46.056Z,76.20
2023-04-24T00:45:49.106Z,76.00
2023-04-24T00:50:52.182Z,76.10
2023-04-24T00:55:55.304Z,76.10
2023-04-24T01:00:59.732Z,76.50
2023-04-24T01:06:03.003Z,76.60
2023-04-24T01:11:06.588Z,76.90
2023-04-24T01:16:09.409Z,77.30
2023-04-24T01:21:19.656Z,77.60
2023-04-24T01:26:24.788Z,77.80
2023-04-24T01:31:27.772Z,78.10
2023-04-24T01:36:33.320Z,78.70
2023-04-24T01:41:36.329Z,79.00
2023-04-24T01:46:39.570Z,79.40
2023-04-24T01:51:42.717Z,79.90
2023-04-24T01:56:47.732Z,80.00
2023-04-24T02:01:50.699Z,80.00
2023-04-24T02:06:53.876Z,79.90
2023-04-24T02:11:57.488Z,80.20
2023-04-24T02:17:00.257Z,81.50
2023-04-24T02:22:03.184Z,82.80
2023-04-24T02:27:06.384Z,83.90
2023-04-24T02:32:13.340Z,84.40
2023-04-24T02:37:16.585Z,85.40
2023-04-24T02:42:19.703Z,87.10
2023-04-24T02:47:22.452Z,88.40
2023-04-24T02:52:25.544Z,89.50
2023-04-24T02:57:28.501Z,90.40
2023-04-24T03:02:31.562Z,91.00
2023-04-24T03:07:34.983Z,91.80
2023-04-24T03:12:37.879Z,91.80
2023-04-24T03:17:40.891Z,92.10
2023-04-24T03:22:43.735Z,92.50
2023-04-24T03:27:47.236Z,92.60
2023-04-24T03:32:50.301Z,92.80
2023-04-24T03:37:53.226Z,92.90
2023-04-24T03:42:56.293Z,93.60
2023-04-24T03:47:59.435Z,93.60
2023-04-24T03:53:02.446Z,93.70
2023-04-24T03:58:06.982Z,93.90
2023-04-24T04:03:10.167Z,94.10
2023-04-24T04:08:13.323Z,94.40
2023-04-24T04:13:16.390Z,94.70
2023-04-24T04:18:19.397Z,95.10
2023-04-24T04:23:22.348Z,95.40
2023-04-24T04:28:28.178Z,95.40
2023-04-24T04:33:32.029Z,95.50
2023-04-24T04:38:36.073Z,95.20
2023-04-24T04:43:40.749Z,95.30
2023-04-24T04:48:44.149Z,95.20
2023-04-24T04:53:47.152Z,94.90
2023-04-24T04:58:50.560Z,94.60
2023-04-24T05:03:53.618Z,94.50
2023-04-24T05:08:58.327Z,94.10
2023-04-24T05:14:01.434Z,94.00
2023-04-24T05:19:04.377Z,93.70
2023-04-24T05:24:08.005Z,93.70
2023-04-24T05:29:10.901Z,93.50
2023-04-24T05:34:13.866Z,93.30
2023-04-24T05:39:16.807Z,93.00
2023-04-24T05:44:19.897Z,93.10
2023-04-24T05:49:23.447Z,92.90
2023-04-24T05:54:26.444Z,92.70
2023-04-24T05:59:29.900Z,92.20
2023-04-24T06:04:34.188Z,92.30
2023-04-24T06:09:37.763Z,92.00
2023-04-24T06:14:40.889Z,91.90
2023-04-24T06:19:43.789Z,92.20
2023-04-24T06:24:48.340Z,92.10
2023-04-24T06:29:55.308Z,92.00
2023-04-24T06:34:59.507Z,91.80
2023-04-24T06:40:02.714Z,91.80
2023-04-24T06:45:06.328Z,91.70
2023-04-24T06:50:10.134Z,91.30
2023-04-24T06:55:13.132Z,91.50
2023-04-24T07:00:16.574Z,91.20
2023-04-24T07:05:21.013Z,91.20
2023-04-24T07:10:24.253Z,91.30
2023-04-24T07:15:27.619Z,91.40
2023-04-24T07:20:30.692Z,91.40
2023-04-24T07:25:34.065Z,91.40
2023-04-24T07:30:37.114Z,91.40
2023-04-24T07:35:40.070Z,91.50
2023-04-24T07:40:43.231Z,91.40
2023-04-24T07:45:46.411Z,91.50
2023-04-24T07:50:49.604Z,91.30
2023-04-24T07:55:52.635Z,91.40
2023-04-24T08:00:56.120Z,91.00
2023-04-24T08:05:59.331Z,90.70
2023-04-24T08:11:02.336Z,90.50
2023-04-24T08:16:05.685Z,90.70
2023-04-24T08:21:08.841Z,90.70
2023-04-24T08:26:12.323Z,89.70
2023-04-24T08:31:15.621Z,90.00
2023-04-24T08:36:18.637Z,90.30
2023-04-24T08:41:22.413Z,90.20
2023-04-24T08:46:26.396Z,89.70
2023-04-24T08:51:31.559Z,90.00
2023-04-24T08:56:38.941Z,89.70
2023-04-24T09:01:43.077Z,88.90
2023-04-24T09:06:46.076Z,86.80
2023-04-24T09:11:51.797Z,86.50
2023-04-24T09:16:55.031Z,84.60
2023-04-24T09:21:58.079Z,84.20
2023-04-24T09:27:02.517Z,83.90
2023-04-24T09:32:26.912Z,83.80
2023-04-24T09:37:31.158Z,83.20
2023-04-24T09:42:34.287Z,83.40
2023-04-24T09:47:41.327Z,82.40
2023-04-24T09:53:06.575Z,80.90
2023-04-24T09:58:10.356Z,79.00
2023-04-24T10:03:14.038Z,75.60
2023-04-24T10:08:17.144Z,74.60
2023-04-24T10:13:20.663Z,74.10
2023-04-24T10:18:25.275Z,73.40
2023-04-24T10:23:29.539Z,73.70
2023-04-24T10:28:35.160Z,74.10
2023-04-24T10:33:39.437Z,75.00
2023-04-24T10:38:47.261Z,73.90
2023-04-24T10:44:10.849Z,73.30
2023-04-24T10:49:17.035Z,71.80
2023-04-24T10:54:48.475Z,71.90
2023-04-24T11:00:13.540Z,71.70
2023-04-24T11:05:18.688Z,72.50
2023-04-24T11:10:28.440Z,73.90
2023-04-24T11:15:31.572Z,74.20
2023-04-24T11:20:34.657Z,74.20
2023-04-24T11:25:37.655Z,74.80
2023-04-24T11:30:41.426Z,75.60
2023-04-24T11:35:44.538Z,76.20
2023-04-24T11:40:50.182Z,76.80
2023-04-24T11:45:53.292Z,77.00
2023-04-24T11:50:56.761Z,77.10
2023-04-24T11:56:05.476Z,77.30
2023-04-24T12:01:08.478Z,77.70
2023-04-24T12:06:13.190Z,79.50
2023-04-24T12:11:19.005Z,80.50
2023-04-24T12:16:22.287Z,80.60
2023-04-24T12:21:27.666Z,82.40
2023-04-24T12:26:30.990Z,84.30
2023-04-24T12:31:34.251Z,85.30
2023-04-24T12:36:37.325Z,86.80
2023-04-24T12:42:00.407Z,87.70
2023-04-24T12:47:03.653Z,88.50
2023-04-24T12:52:06.651Z,88.90
2023-04-24T12:57:09.658Z,89.40
2023-04-24T13:02:13.059Z,89.60
2023-04-24T13:07:16.496Z,90.30
2023-04-24T13:12:19.558Z,90.50
2023-04-24T13:17:23.489Z,90.10
2023-04-24T13:22:26.536Z,88.70
2023-04-24T13:27:29.511Z,87.70
2023-04-24T13:32:34.425Z,85.70
2023-04-24T13:37:37.555Z,86.60
2023-04-24T13:42:41.170Z,86.50
2023-04-24T13:47:44.144Z,86.00
2023-04-24T13:52:47.242Z,86.10
2023-04-24T13:57:50.561Z,86.20
2023-04-24T14:02:53.686Z,86.40
2023-04-24T14:07:57.291Z,87.60
2023-04-24T14:13:00.385Z,88.40
2023-04-24T14:18:05.742Z,89.50
2023-04-24T14:23:09.528Z,90.40
2023-04-24T14:28:12.555Z,90.90
2023-04-24T14:33:16.193Z,91.20
2023-04-24T14:38:19.133Z,91.40
2023-04-24T14:43:22.173Z,92.10
2023-04-24T14:48:25.773Z,93.00
2023-04-24T14:53:28.841Z,93.40
2023-04-24T14:58:31.889Z,94.00
2023-04-24T15:03:35.134Z,94.70
2023-04-24T15:08:38.275Z,95.10
2023-04-24T15:13:41.274Z,95.40
2023-04-24T15:18:44.365Z,95.90
2023-04-24T15:23:47.616Z,96.50
2023-04-24T15:28:51.478Z,97.00
2023-04-24T15:33:54.465Z,97.30
2023-04-24T15:38:57.798Z,97.70
2023-04-24T15:44:01.110Z,98.00
2023-04-24T15:49:04.266Z,98.00
2023-04-24T15:54:08.403Z,97.90
2023-04-24T15:59:11.488Z,97.40
2023-04-24T16:04:14.796Z,97.40
2023-04-24T16:09:18.422Z,97.70
2023-04-24T16:14:21.419Z,98.00
2023-04-24T16:19:24.682Z,98.70
2023-04-24T16:24:29.605Z,99.00
2023-04-24T16:29:32.793Z,99.30
2023-04-24T16:34:35.779Z,99.70
2023-04-24T16:39:39.004Z,99.90
2023-04-24T16:44:43.139Z,99.90
2023-04-24T16:49:46.265Z,99.90
2023-04-24T16:54:49.285Z,99.90
2023-04-24T16:59:52.299Z,99.90
2023-04-24T17:04:55.570Z,99.90
2023-04-24T17:09:58.618Z,99.90
2023-04-24T17:15:01.688Z,99.90
2023-04-24T17:20:18.586Z,99.90
2023-04-24T17:25:25.128Z,99.90
2023-04-24T17:30:28.105Z,99.90
2023-04-24T17:35:31.144Z,99.90
2023-04-24T17:40:34.490Z,99.90
2023-04-24T17:45:37.757Z,99.90
2023-04-24T17:50:41.076Z,99.90
2023-04-24T17:55:44.531Z,99.90
2023-04-24T18:00:47.499Z,99.90
2023-04-24T18:05:50.864Z,99.90
2023-04-24T18:10:54.764Z,99.90
2023-04-24T18:15:57.784Z,99.90
2023-04-24T18:21:01.042Z,99.90
2023-04-24T18:26:04.247Z,99.90
2023-04-24T18:31:08.667Z,99.90
2023-04-24T18:36:11.552Z,99.90
2023-04-24T18:41:14.816Z,99.90
2023-04-24T18:46:18.317Z,99.90
2023-04-24T18:51:21.197Z,99.90
2023-04-24T18:56:24.167Z,99.90
2023-04-24T19:01:27.471Z,99.90
2023-04-24T19:06:31.932Z,99.90
2023-04-24T19:11:35.031Z,99.90
2023-04-24T19:16:38.071Z,99.90
2023-04-24T19:21:41.300Z,99.90
2023-04-24T19:26:45.371Z,99.90
2023-04-24T19:31:48.399Z,99.90
2023-04-24T19:36:51.520Z,99.90
2023-04-24T19:41:57.142Z,99.90
2023-04-24T19:47:00.424Z,99.90
2023-04-24T19:52:03.390Z,99.90
2023-04-24T19:57:06.741Z,99.90
2023-04-24T20:02:11.601Z,99.90
2023-04-24T20:07:14.695Z,99.90
2023-04-24T20:12:19.544Z,99.90
2023-04-24T20:17:22.530Z,99.90
2023-04-24T20:22:25.585Z,99.90
2023-04-24T20:27:30.283Z,99.90
2023-04-24T20:32:33.395Z,99.90
2023-04-24T20:37:36.937Z,99.90
2023-04-24T20:42:40.246Z,99.90
2023-04-24T20:47:43.132Z,99.90
2023-04-24T20:52:46.652Z,99.90
2023-04-24T20:57:49.678Z,99.90
2023-04-24T21:02:52.792Z,99.90
2023-04-24T21:07:56.289Z,99.90
2023-04-24T21:12:59.354Z,99.90
2023-04-24T21:18:03.390Z,99.90
2023-04-24T21:23:06.386Z,99.90
2023-04-24T21:28:09.282Z,99.90
2023-04-24T21:33:12.690Z,99.90
2023-04-24T21:38:15.768Z,99.90
2023-04-24T21:43:20.600Z,99.90
2023-04-24T21:48:26.437Z,99.90
2023-04-24T21:53:29.829Z,99.90
2023-04-24T21:58:32.836Z,99.90
2023-04-24T22:03:36.012Z,99.90
2023-04-24T22:08:39.174Z,99.90
2023-04-24T22:13:42.865Z,99.90
2023-04-24T22:18:47.702Z,99.90
2023-04-24T22:23:51.711Z,99.90
2023-04-24T22:28:54.939Z,99.90
2023-04-24T22:33:57.957Z,99.90
2023-04-24T22:39:00.874Z,99.90
2023-04-24T22:44:04.139Z,99.90
2023-04-24T22:49:07.390Z,99.90
2023-04-24T22:54:10.997Z,99.90
2023-04-24T22:59:13.968Z,99.90
2023-04-24T23:04:16.981Z,99.90
2023-04-24T23:09:20.095Z,99.90
2023-04-24T23:14:24.662Z,99.90
2023-04-24T23:19:27.830Z,99.90
2023-04-24T23:24:30.897Z,99.90
2023-04-24T23:29:33.997Z,99.90
2023-04-24T23:34:39.406Z,99.90
2023-04-24T23:39:42.258Z,99.90
2023-04-24T23:44:45.408Z,99.90
2023-04-24T23:49:48.334Z,99.90
2023-04-24T23:54:51.320Z,99.90
2023-04-24T23:59:54.419Z,99.90
